createdAt,value
2023-04-01T00:04:55.563Z,101318.97
2023-04-01T00:09:58.321Z,101326.03
2023-04-01T00:15:01.258Z,101320.63
2023-04-01T00:20:08.552Z,101314.44
2023-04-01T00:25:11.084Z,101327.25
2023-04-01T00:30:15.714Z,101322.56
2023-04-01T00:35:18.478Z,101311.22
2023-04-01T00:40:26.353Z,101348.13
2023-04-01T00:45:38.778Z,101353.66
2023-04-01T00:50:45.032Z,101359.75
2023-04-01T00:56:04.600Z,101360.84
2023-04-01T01:01:09.514Z,101363.81
2023-04-01T01:06:33.395Z,101366.97
2023-04-01T01:11:48.734Z,101367.47
2023-04-01T01:17:01.274Z,101364.72
2023-04-01T01:22:07.239Z,101364.72
2023-04-01T01:27:17.053Z,101362.28
2023-04-01T01:32:52.577Z,101366.00
2023-04-01T01:38:04.998Z,101363.69
2023-04-01T01:43:12.174Z,101362.84
2023-04-01T01:48:16.551Z,101365.63
2023-04-01T01:53:19.189Z,101363.41
2023-04-01T01:58:41.606Z,101348.66
2023-04-01T02:03:48.108Z,101369.44
2023-04-01T02:09:04.278Z,101370.41
2023-04-01T02:14:18.305Z,101376.13
2023-04-01T02:19:24.137Z,101384.72
2023-04-01T02:24:31.632Z,101397.16
2023-04-01T02:29:34.537Z,101382.91
2023-04-01T02:34:38.680Z,101391.00
2023-04-01T02:39:41.852Z,101393.13
2023-04-01T02:44:44.694Z,101394.53
2023-04-01T02:49:47.681Z,101403.50
2023-04-01T02:54:50.872Z,101392.53
2023-04-01T02:59:53.727Z,101398.22
2023-04-01T03:04:56.487Z,101402.69
2023-04-01T03:09:59.300Z,101394.50
2023-04-01T03:15:11.009Z,101395.09
2023-04-01T03:20:16.324Z,101389.59
2023-04-01T03:25:19.668Z,101409.19
2023-04-01T03:30:22.442Z,101403.94
2023-04-01T03:35:27.702Z,101414.94
2023-04-01T03:40:30.422Z,101430.59
2023-04-01T03:45:33.280Z,101421.78
2023-04-01T03:50:36.797Z,101427.72
2023-04-01T03:55:40.620Z,101424.09
2023-04-01T04:00:43.244Z,101428.94
2023-04-01T04:05:50.426Z,101435.09
2023-04-01T04:10:57.578Z,101432.25
2023-04-01T04:16:01.247Z,101427.06
2023-04-01T04:21:05.531Z,101437.94
2023-04-01T04:26:10.550Z,101447.31
2023-04-01T04:31:13.642Z,101440.81
2023-04-01T04:36:18.747Z,101437.50
2023-04-01T04:47:36.866Z,101434.56
2023-04-01T04:52:42.471Z,101443.63
2023-04-01T04:57:47.128Z,101451.94
2023-04-01T05:02:50.135Z,101442.09
2023-04-01T05:07:54.359Z,101438.00
2023-04-01T05:12:58.894Z,101435.06
2023-04-01T05:18:02.191Z,101450.00
2023-04-01T05:23:05.516Z,101452.00
2023-04-01T05:28:08.613Z,101446.56
2023-04-01T05:33:13.493Z,101445.53
2023-04-01T05:38:16.728Z,101466.13
2023-04-01T05:43:19.271Z,101479.50
2023-04-01T05:48:24.733Z,101471.41
2023-04-01T05:53:27.770Z,101468.66
2023-04-01T05:58:30.442Z,101467.19
2023-04-01T06:03:33.661Z,101454.16
2023-04-01T06:08:36.743Z,101471.63
2023-04-01T06:14:18.445Z,101464.34
2023-04-01T06:19:48.752Z,101458.88
2023-04-01T06:25:09.145Z,101478.56
2023-04-01T06:30:41.668Z,101487.38
2023-04-01T06:35:58.971Z,101470.53
2023-04-01T06:41:18.058Z,101454.66
2023-04-01T06:46:43.973Z,101460.47
2023-04-01T06:52:05.315Z,101447.63
2023-04-01T06:57:35.755Z,101434.25
2023-04-01T07:02:56.977Z,101435.38
2023-04-01T07:08:05.117Z,101421.91
2023-04-01T07:13:14.260Z,101432.28
2023-04-01T07:18:44.186Z,101425.78
2023-04-01T07:23:48.795Z,101408.72
2023-04-01T07:29:20.713Z,101422.78
2023-04-01T07:35:06.720Z,101411.59
2023-04-01T07:40:19.040Z,101425.03
2023-04-01T07:45:46.965Z,101430.75
2023-04-01T07:51:37.908Z,101436.88
2023-04-01T07:57:02.938Z,101419.66
2023-04-01T08:03:04.672Z,101410.69
2023-04-01T08:08:36.668Z,101409.78
2023-04-01T08:14:28.716Z,101408.47
2023-04-01T08:20:29.274Z,101402.91
2023-04-01T08:25:35.387Z,101399.31
2023-04-01T08:30:49.926Z,101408.91
2023-04-01T08:36:10.613Z,101416.78
2023-04-01T08:41:47.772Z,101424.81
2023-04-01T08:47:33.663Z,101417.63
2023-04-01T08:52:43.457Z,101439.31
2023-04-01T08:58:26.620Z,101434.22
2023-04-01T09:04:00.915Z,101450.72
2023-04-01T09:09:30.110Z,101454.47
2023-04-01T09:14:37.025Z,101460.47
2023-04-01T09:20:59.117Z,101454.66
2023-04-01T09:26:38.808Z,101461.53
2023-04-01T09:31:54.002Z,101450.47
2023-04-01T09:37:31.405Z,101440.53
2023-04-01T09:42:42.690Z,101435.66
2023-04-01T09:48:31.840Z,101434.03
2023-04-01T09:54:23.367Z,101433.16
2023-04-01T09:59:41.824Z,101423.44
2023-04-01T10:05:20.848Z,101420.19
2023-04-01T10:10:31.052Z,101426.91
2023-04-01T10:16:01.864Z,101419.69
2023-04-01T10:21:16.040Z,101413.38
2023-04-01T10:26:22.624Z,101388.16
2023-04-01T10:31:59.779Z,101395.34
2023-04-01T10:37:28.711Z,101392.81
2023-04-01T10:42:53.106Z,101382.03
2023-04-01T10:48:55.076Z,101376.75
2023-04-01T10:54:28.451Z,101356.84
2023-04-01T11:00:13.517Z,101368.41
2023-04-01T11:05:57.593Z,101362.28
2023-04-01T11:11:22.814Z,101352.16
2023-04-01T11:16:52.692Z,101358.16
2023-04-01T11:22:23.095Z,101362.78
2023-04-01T11:27:50.182Z,101352.03
2023-04-01T11:33:17.724Z,101349.25
2023-04-01T11:39:00.456Z,101344.31
2023-04-01T11:44:35.065Z,101343.38
2023-04-01T11:50:16.120Z,101341.72
2023-04-01T11:55:23.007Z,101329.66
2023-04-01T12:00:46.337Z,101331.03
2023-04-01T12:05:51.615Z,101324.66
2023-04-01T12:11:17.832Z,101314.16
2023-04-01T12:17:05.203Z,101299.97
2023-04-01T12:22:36.516Z,101308.28
2023-04-01T12:27:43.493Z,101308.16
2023-04-01T12:33:13.583Z,101295.13
2023-04-01T12:38:30.171Z,101280.78
2023-04-01T12:44:22.561Z,101277.56
2023-04-01T12:49:54.457Z,101277.59
2023-04-01T12:55:20.172Z,101275.41
2023-04-01T13:00:59.125Z,101278.97
2023-04-01T13:06:23.294Z,101282.94
2023-04-01T13:11:52.597Z,101282.50
2023-04-01T13:17:32.394Z,101277.94
2023-04-01T13:22:48.048Z,101283.38
2023-04-01T13:28:10.724Z,101286.88
2023-04-01T13:33:13.339Z,101290.56
2023-04-01T13:38:25.296Z,101288.00
2023-04-01T13:43:36.500Z,101275.81
2023-04-01T13:48:51.126Z,101276.00
2023-04-01T13:54:31.743Z,101285.56
2023-04-01T14:00:02.371Z,101285.22
2023-04-01T14:05:42.127Z,101288.06
2023-04-01T14:11:05.942Z,101296.59
2023-04-01T14:16:14.736Z,101299.34
2023-04-01T14:21:43.097Z,101301.97
2023-04-01T14:26:55.955Z,101295.88
2023-04-01T14:32:26.844Z,101297.44
2023-04-01T14:37:52.268Z,101304.25
2023-04-01T14:43:18.928Z,101300.72
2023-04-01T14:48:43.018Z,101302.75
2023-04-01T14:54:07.824Z,101316.84
2023-04-01T14:59:21.354Z,101323.41
2023-04-01T15:04:47.108Z,101330.84
2023-04-01T15:10:12.297Z,101334.94
2023-04-01T15:15:38.877Z,101342.59
2023-04-01T15:20:49.613Z,101346.56
2023-04-01T15:25:58.973Z,101351.03
2023-04-01T15:31:36.550Z,101337.34
2023-04-01T15:37:23.916Z,101352.47
2023-04-01T15:42:49.477Z,101360.25
2023-04-01T15:48:12.060Z,101358.88
2023-04-01T15:53:27.050Z,101357.19
2023-04-01T15:59:01.409Z,101356.84
2023-04-01T16:04:46.095Z,101360.16
2023-04-01T16:10:06.533Z,101362.00
2023-04-01T16:15:49.383Z,101375.66
2023-04-01T16:21:16.226Z,101372.06
2023-04-01T16:26:44.332Z,101371.72
2023-04-01T16:31:53.815Z,101377.84
2023-04-01T16:37:21.921Z,101379.81
2023-04-01T16:42:28.025Z,101379.81
2023-04-01T16:47:49.390Z,101378.31
2023-04-01T16:53:17.151Z,101381.81
2023-04-01T16:58:58.276Z,101389.50
2023-04-01T17:04:09.928Z,101389.69
2023-04-01T17:09:48.343Z,101389.34
2023-04-01T17:15:03.290Z,101383.03
2023-04-01T17:20:43.730Z,101384.38
2023-04-01T17:25:49.502Z,101369.16
2023-04-01T17:30:55.517Z,101362.00
2023-04-01T17:36:18.087Z,101368.16
2023-04-01T17:41:50.607Z,101372.50
2023-04-01T17:47:19.071Z,101357.13
2023-04-01T17:52:39.070Z,101361.81
2023-04-01T17:57:57.381Z,101353.97
2023-04-01T18:03:17.999Z,101354.81
2023-04-01T18:08:42.537Z,101344.94
2023-04-01T18:13:57.245Z,101344.94
2023-04-01T18:19:08.633Z,101339.75
2023-04-01T18:24:30.696Z,101326.53
2023-04-01T18:29:54.862Z,101346.28
2023-04-01T18:35:17.098Z,101338.56
2023-04-01T18:40:38.922Z,101327.53
2023-04-01T18:45:44.820Z,101332.22
2023-04-01T18:51:09.751Z,101326.50
2023-04-01T18:56:37.294Z,101322.66
2023-04-01T19:02:26.152Z,101321.31
2023-04-01T19:07:32.021Z,101320.31
2023-04-01T19:12:37.708Z,101313.97
2023-04-01T19:18:03.938Z,101297.25
2023-04-01T19:23:09.613Z,101311.63
2023-04-01T19:28:31.014Z,101306.44
2023-04-01T19:33:55.621Z,101305.94
2023-04-01T19:39:39.368Z,101305.88
2023-04-01T19:45:03.680Z,101315.75
2023-04-01T19:50:30.590Z,101314.84
2023-04-01T19:55:49.810Z,101312.16
2023-04-01T20:01:00.409Z,101317.91
2023-04-01T20:06:19.875Z,101304.88
2023-04-01T20:11:36.403Z,101309.06
2023-04-01T20:16:51.764Z,101302.00
2023-04-01T20:21:59.319Z,101308.56
2023-04-01T20:27:14.544Z,101308.69
2023-04-01T20:32:28.189Z,101308.09
2023-04-01T20:37:46.315Z,101306.19
2023-04-01T20:43:33.275Z,101303.44
2023-04-01T20:49:04.249Z,101298.16
2023-04-01T20:54:28.317Z,101310.53
2023-04-01T20:59:31.079Z,101300.75
2023-04-01T21:05:31.226Z,101300.06
2023-04-01T21:10:36.755Z,101299.09
2023-04-01T21:15:48.130Z,101298.25
2023-04-01T21:21:12.041Z,101291.72
2023-04-01T21:26:44.248Z,101282.72
2023-04-01T21:32:00.675Z,101275.63
2023-04-01T21:37:06.047Z,101279.91
2023-04-01T21:42:43.751Z,101279.50
2023-04-01T21:47:46.385Z,101274.31
2023-04-01T21:53:26.216Z,101271.25
2023-04-01T21:58:43.957Z,101259.25
2023-04-01T22:04:17.767Z,101264.31
2023-04-01T22:09:37.056Z,101261.72
2023-04-01T22:14:51.866Z,101264.28
2023-04-01T22:20:10.517Z,101260.53
2023-04-01T22:25:23.916Z,101252.16
2023-04-01T22:30:34.021Z,101246.41
2023-04-01T22:35:52.407Z,101241.56
2023-04-01T22:41:00.969Z,101235.25
2023-04-01T22:46:22.917Z,101229.75
2023-04-01T22:51:55.558Z,101238.16
2023-04-01T22:57:11.729Z,101228.88
2023-04-01T23:02:23.382Z,101219.19
2023-04-01T23:07:54.610Z,101225.22
2023-04-01T23:13:01.701Z,101227.19
2023-04-01T23:18:29.286Z,101221.72
2023-04-01T23:23:43.879Z,101210.00
2023-04-01T23:28:53.380Z,101214.19
2023-04-01T23:34:16.047Z,101212.94
2023-04-01T23:39:50.326Z,101221.34
2023-04-01T23:44:56.793Z,101211.69
2023-04-01T23:50:04.647Z,101208.72
2023-04-01T23:55:14.262Z,101209.63
